createdAt,value
2019-03-27T00:00:59.421Z,21.80
2019-03-27T00:03:25.467Z,21.90
2019-03-27T00:05:51.415Z,21.80
2019-03-27T00:08:17.413Z,21.80
2019-03-27T00:10:43.470Z,21.80
2019-03-27T00:13:09.551Z,21.80
2019-03-27T00:15:35.579Z,21.80
2019-03-27T00:18:01.601Z,21.70
2019-03-27T00:20:27.690Z,21.80
2019-03-27T00:22:53.641Z,21.80
2019-03-27T00:25:19.677Z,21.70
2019-03-27T00:27:45.631Z,21.70
2019-03-27T00:30:11.567Z,21.70
2019-03-27T00:32:37.528Z,21.70
2019-03-27T00:35:03.486Z,21.70
2019-03-27T00:37:29.453Z,21.70
2019-03-27T00:39:55.405Z,21.60
2019-03-27T00:42:21.395Z,21.60
2019-03-27T00:44:47.677Z,21.60
2019-03-27T00:47:13.637Z,21.60
2019-03-27T00:49:39.617Z,21.60
2019-03-27T00:52:05.555Z,21.60
2019-03-27T00:54:31.512Z,21.60
2019-03-27T00:56:57.471Z,21.60
2019-03-27T00:59:23.407Z,21.60
2019-03-27T01:01:49.350Z,21.60
2019-03-27T01:04:15.315Z,21.60
2019-03-27T01:06:41.253Z,21.60
2019-03-27T01:09:07.289Z,21.40
2019-03-27T01:11:33.261Z,21.50
2019-03-27T01:13:59.364Z,21.60
2019-03-27T01:16:25.333Z,21.60
2019-03-27T01:18:51.281Z,21.50
2019-03-27T01:21:17.319Z,21.50
2019-03-27T01:23:43.268Z,21.50
2019-03-27T01:26:09.217Z,21.50
2019-03-27T01:28:35.253Z,21.50
2019-03-27T01:31:01.298Z,21.50
2019-03-27T01:33:27.258Z,21.50
2019-03-27T01:35:53.224Z,21.50
2019-03-27T01:38:19.167Z,21.50
2019-03-27T01:40:45.124Z,21.50
2019-03-27T01:43:11.080Z,21.50
2019-03-27T01:45:37.032Z,21.40
2019-03-27T01:48:02.986Z,21.40
2019-03-27T01:50:28.937Z,21.40
2019-03-27T01:52:54.872Z,21.40
2019-03-27T01:55:20.824Z,21.40
2019-03-27T01:57:46.760Z,21.40
2019-03-27T02:00:12.724Z,21.40
2019-03-27T02:02:38.707Z,21.40
2019-03-27T02:05:04.806Z,21.40
2019-03-27T02:07:30.837Z,21.40
2019-03-27T02:09:56.794Z,21.40
2019-03-27T02:12:22.756Z,21.30
2019-03-27T02:14:49.324Z,21.30
2019-03-27T02:17:15.296Z,21.30
2019-03-27T02:19:41.265Z,21.30
2019-03-27T02:22:07.292Z,21.30
2019-03-27T02:24:33.614Z,21.30
2019-03-27T02:26:59.548Z,21.30
2019-03-27T02:29:25.503Z,21.30
2019-03-27T02:31:51.467Z,21.30
2019-03-27T02:34:17.757Z,21.30
2019-03-27T02:36:43.728Z,21.30
2019-03-27T02:39:09.678Z,21.30
2019-03-27T02:41:35.636Z,21.30
2019-03-27T02:44:01.566Z,21.30
2019-03-27T02:46:27.535Z,21.20
2019-03-27T02:48:53.471Z,21.20
2019-03-27T02:51:19.406Z,21.20
2019-03-27T02:53:45.354Z,21.20
2019-03-27T02:56:11.290Z,21.20
2019-03-27T02:58:37.222Z,21.20
2019-03-27T03:01:03.168Z,21.20
2019-03-27T03:03:29.108Z,21.20
2019-03-27T03:05:55.062Z,21.20
2019-03-27T03:08:20.998Z,21.20
2019-03-27T03:10:46.932Z,21.20
2019-03-27T03:13:12.887Z,21.20
2019-03-27T03:15:38.866Z,21.10
2019-03-27T03:18:04.847Z,21.20
2019-03-27T03:20:30.933Z,21.20
2019-03-27T03:22:56.975Z,21.10
2019-03-27T03:25:22.912Z,21.20
2019-03-27T03:27:48.877Z,21.10
2019-03-27T03:30:14.946Z,21.10
2019-03-27T03:32:40.998Z,21.10
2019-03-27T03:35:07.062Z,21.10
2019-03-27T03:37:33.152Z,21.10
2019-03-27T03:39:59.227Z,21.10
2019-03-27T03:42:25.223Z,21.10
2019-03-27T03:44:51.272Z,21.10
2019-03-27T03:47:17.240Z,21.00
2019-03-27T03:49:43.309Z,21.10
2019-03-27T03:52:09.360Z,21.10
2019-03-27T03:54:35.302Z,21.10
2019-03-27T03:57:01.258Z,21.10
2019-03-27T03:59:27.230Z,21.10
2019-03-27T04:01:53.204Z,21.00
2019-03-27T04:04:22.573Z,21.10
2019-03-27T04:06:48.524Z,21.10
2019-03-27T04:09:14.483Z,21.00
2019-03-27T04:11:40.521Z,21.00
2019-03-27T04:14:06.574Z,21.00
2019-03-27T04:16:32.524Z,21.00
2019-03-27T04:18:58.506Z,21.00
2019-03-27T04:21:26.925Z,21.00
2019-03-27T04:23:52.300Z,21.00
2019-03-27T04:26:18.253Z,21.00
2019-03-27T04:28:44.202Z,21.00
2019-03-27T04:31:10.168Z,21.00
2019-03-27T04:33:36.440Z,21.00
2019-03-27T04:36:02.410Z,21.00
2019-03-27T04:38:48.216Z,20.90
2019-03-27T04:41:14.289Z,21.20
2019-03-27T04:43:40.225Z,21.00
2019-03-27T04:46:06.195Z,20.90
2019-03-27T04:48:32.257Z,21.00
2019-03-27T04:50:58.195Z,21.00
2019-03-27T04:53:24.129Z,20.90
2019-03-27T04:55:50.081Z,21.00
2019-03-27T04:58:16.032Z,20.90
2019-03-27T05:00:41.989Z,20.90
2019-03-27T05:03:08.033Z,20.90
2019-03-27T05:05:33.971Z,20.90
2019-03-27T05:07:59.903Z,20.90
2019-03-27T05:10:25.838Z,20.90
2019-03-27T05:12:51.805Z,20.90
2019-03-27T05:15:17.767Z,20.90
2019-03-27T05:17:46.293Z,21.00
2019-03-27T05:20:11.699Z,21.00
2019-03-27T05:22:37.770Z,21.00
2019-03-27T05:25:03.792Z,21.00
2019-03-27T05:27:29.742Z,21.10
2019-03-27T05:29:55.706Z,21.00
2019-03-27T05:32:21.796Z,21.00
2019-03-27T05:34:48.441Z,21.00
2019-03-27T05:37:14.395Z,21.00
2019-03-27T05:39:40.345Z,21.00
2019-03-27T05:42:06.381Z,21.00
2019-03-27T05:44:32.336Z,21.00
2019-03-27T05:46:58.296Z,21.00
2019-03-27T05:49:24.374Z,21.00
2019-03-27T05:51:50.531Z,21.00
2019-03-27T05:54:16.483Z,21.00
2019-03-27T05:56:42.416Z,21.10
2019-03-27T05:59:08.386Z,21.10
2019-03-27T06:01:35.506Z,21.00
2019-03-27T06:04:01.502Z,21.00
2019-03-27T06:06:27.556Z,21.00
2019-03-27T06:08:53.528Z,21.00
2019-03-27T06:11:19.476Z,21.10
2019-03-27T06:13:45.412Z,21.00
2019-03-27T06:16:11.386Z,21.00
2019-03-27T06:18:37.339Z,21.10
2019-03-27T06:21:03.272Z,21.10
2019-03-27T06:23:29.231Z,21.00
2019-03-27T06:25:55.194Z,21.10
2019-03-27T06:28:21.156Z,21.10
2019-03-27T06:30:47.164Z,21.10
2019-03-27T06:33:13.102Z,21.10
2019-03-27T06:35:39.082Z,21.10
2019-03-27T06:38:05.417Z,21.10
2019-03-27T06:40:31.700Z,21.10
2019-03-27T06:42:58.057Z,21.10
2019-03-27T06:45:24.012Z,21.10
2019-03-27T06:47:49.946Z,21.10
2019-03-27T06:50:15.884Z,21.00
2019-03-27T06:52:41.812Z,21.10
2019-03-27T06:55:07.788Z,21.10
2019-03-27T06:57:33.834Z,21.10
2019-03-27T06:59:59.855Z,21.10
2019-03-27T07:02:28.601Z,21.10
2019-03-27T07:04:53.724Z,21.10
2019-03-27T07:07:19.670Z,21.10
2019-03-27T07:09:45.612Z,21.20
2019-03-27T07:12:21.032Z,21.20
2019-03-27T07:14:39.373Z,21.20
2019-03-27T07:17:05.309Z,21.20
2019-03-27T07:19:31.260Z,21.30
2019-03-27T07:21:57.193Z,21.30
2019-03-27T07:24:23.684Z,21.40
2019-03-27T07:26:49.665Z,21.60
2019-03-27T07:29:18.935Z,21.60
2019-03-27T07:31:43.578Z,21.70
2019-03-27T07:34:09.592Z,21.80
2019-03-27T07:36:35.596Z,21.80
2019-03-27T07:39:10.872Z,21.80
2019-03-27T07:41:29.410Z,21.90
2019-03-27T07:43:55.360Z,21.90
2019-03-27T07:46:21.342Z,22.00
2019-03-27T07:48:53.849Z,22.00
2019-03-27T07:51:15.186Z,22.00
2019-03-27T07:53:41.150Z,22.10
2019-03-27T07:56:07.107Z,22.10
2019-03-27T07:58:33.072Z,22.20
2019-03-27T08:00:59.142Z,22.20
2019-03-27T08:03:25.082Z,22.30
2019-03-27T08:05:51.022Z,22.30
2019-03-27T08:08:16.976Z,22.40
2019-03-27T08:10:42.934Z,22.40
2019-03-27T08:13:08.902Z,22.40
2019-03-27T08:15:34.915Z,22.50
2019-03-27T08:18:00.888Z,22.50
2019-03-27T08:20:26.815Z,22.50
2019-03-27T08:22:52.770Z,22.60
2019-03-27T08:25:18.706Z,22.60
2019-03-27T08:27:44.651Z,22.60
2019-03-27T08:30:10.603Z,22.70
2019-03-27T08:32:37.636Z,22.70
2019-03-27T08:35:03.704Z,22.70
2019-03-27T08:37:29.647Z,22.80
2019-03-27T08:39:55.704Z,22.70
2019-03-27T08:42:21.719Z,22.70
2019-03-27T08:44:47.930Z,22.80
2019-03-27T08:47:13.874Z,22.80
2019-03-27T08:49:39.817Z,22.80
2019-03-27T08:52:05.781Z,22.80
2019-03-27T08:54:31.851Z,22.80
2019-03-27T08:56:57.799Z,22.80
2019-03-27T08:59:23.769Z,22.80
2019-03-27T09:01:49.701Z,22.80
2019-03-27T09:04:15.663Z,22.90
2019-03-27T09:06:41.611Z,22.90
2019-03-27T09:09:07.578Z,23.00
2019-03-27T09:11:33.530Z,23.00
2019-03-27T09:13:59.511Z,22.90
2019-03-27T09:16:25.445Z,23.30
2019-03-27T09:18:51.407Z,22.90
2019-03-27T09:21:17.363Z,22.90
2019-03-27T09:23:45.657Z,22.80
2019-03-27T09:26:11.178Z,22.80
2019-03-27T09:28:37.140Z,22.80
2019-03-27T09:31:03.100Z,22.70
2019-03-27T09:33:29.060Z,22.70
2019-03-27T09:35:55.089Z,22.70
2019-03-27T09:38:21.091Z,22.70
2019-03-27T09:40:47.053Z,22.60
2019-03-27T09:43:12.985Z,22.60
2019-03-27T09:45:38.925Z,22.60
2019-03-27T09:48:04.866Z,22.60
2019-03-27T09:50:30.820Z,22.60
2019-03-27T09:52:56.775Z,22.60
2019-03-27T09:55:22.723Z,22.60
2019-03-27T09:57:48.786Z,22.60
2019-03-27T10:00:34.698Z,22.60
2019-03-27T10:03:00.656Z,22.50
2019-03-27T10:05:26.609Z,22.60
2019-03-27T10:07:52.583Z,22.60
2019-03-27T10:10:18.534Z,22.60
2019-03-27T10:12:44.489Z,22.60
2019-03-27T10:15:10.432Z,22.60
2019-03-27T10:17:36.408Z,22.60
2019-03-27T10:20:03.951Z,22.50
2019-03-27T10:22:30.429Z,22.50
2019-03-27T10:24:56.405Z,22.50
2019-03-27T10:27:22.491Z,22.50
2019-03-27T10:29:48.544Z,22.50
2019-03-27T10:32:14.494Z,22.50
2019-03-27T10:34:40.420Z,22.50
2019-03-27T10:37:06.405Z,22.50
2019-03-27T10:39:32.340Z,22.50
2019-03-27T10:41:58.276Z,22.50
2019-03-27T10:44:24.242Z,22.50
2019-03-27T10:46:50.187Z,22.50
2019-03-27T10:49:16.170Z,22.50
2019-03-27T10:51:42.123Z,22.40
2019-03-27T10:54:08.090Z,22.50
2019-03-27T10:56:34.041Z,22.50
2019-03-27T10:58:59.967Z,22.40
2019-03-27T11:01:25.900Z,22.50
2019-03-27T11:03:51.858Z,22.50
2019-03-27T11:06:17.798Z,22.60
2019-03-27T11:08:43.726Z,22.60
2019-03-27T11:11:09.692Z,22.60
2019-03-27T11:13:35.655Z,22.70
2019-03-27T11:16:01.612Z,22.70
2019-03-27T11:18:27.548Z,22.70
2019-03-27T11:20:53.490Z,22.80
2019-03-27T11:23:19.560Z,22.80
2019-03-27T11:25:45.608Z,22.80
2019-03-27T11:28:11.554Z,22.80
2019-03-27T11:30:37.496Z,22.80
2019-03-27T11:33:03.435Z,22.90
2019-03-27T11:35:29.396Z,22.80
2019-03-27T11:37:55.334Z,22.90
2019-03-27T11:40:21.264Z,22.90
2019-03-27T11:42:47.220Z,22.90
2019-03-27T11:45:13.178Z,22.90
2019-03-27T11:47:39.217Z,23.00
2019-03-27T11:50:05.144Z,23.00
2019-03-27T11:52:31.117Z,23.00
2019-03-27T11:54:57.072Z,23.00
2019-03-27T11:57:23.016Z,23.00
2019-03-27T11:59:54.237Z,23.00
2019-03-27T12:02:16.808Z,23.00
2019-03-27T12:04:42.745Z,23.00
2019-03-27T12:07:08.700Z,23.00
2019-03-27T12:09:34.665Z,23.00
2019-03-27T12:12:00.612Z,23.00
2019-03-27T12:14:26.568Z,23.00
2019-03-27T12:16:52.499Z,23.00
2019-03-27T12:19:18.472Z,23.00
2019-03-27T12:21:44.406Z,23.10
2019-03-27T12:24:10.385Z,23.10
2019-03-27T12:26:36.340Z,23.10
2019-03-27T12:29:02.304Z,23.10
2019-03-27T12:31:28.250Z,23.00
2019-03-27T12:33:54.218Z,23.00
2019-03-27T12:36:20.173Z,23.00
2019-03-27T12:38:46.125Z,23.00
2019-03-27T12:41:12.070Z,23.00
2019-03-27T12:43:38.008Z,22.90
2019-03-27T12:46:03.968Z,23.00
2019-03-27T12:48:29.913Z,23.00
2019-03-27T12:50:55.963Z,23.00
2019-03-27T12:53:21.924Z,23.00
2019-03-27T12:55:47.892Z,23.00
2019-03-27T12:58:13.931Z,23.00
2019-03-27T13:00:39.882Z,23.10
2019-03-27T13:03:05.818Z,23.10
2019-03-27T13:05:31.799Z,23.10
2019-03-27T13:07:57.748Z,23.10
2019-03-27T13:10:23.716Z,23.10
2019-03-27T13:12:49.659Z,23.10
2019-03-27T13:15:15.614Z,23.10
2019-03-27T13:17:41.565Z,23.10
2019-03-27T13:20:07.570Z,23.10
2019-03-27T13:22:33.561Z,23.10
2019-03-27T13:24:59.524Z,23.00
2019-03-27T13:27:25.496Z,23.00
2019-03-27T13:29:51.429Z,23.00
2019-03-27T13:32:17.429Z,23.00
2019-03-27T13:34:43.370Z,23.00
2019-03-27T13:37:09.422Z,23.00
2019-03-27T13:39:35.495Z,23.00
2019-03-27T13:42:01.440Z,23.00
2019-03-27T13:44:36.997Z,23.00
2019-03-27T13:46:55.275Z,23.00
2019-03-27T13:49:21.477Z,23.00
2019-03-27T13:51:47.446Z,23.00
2019-03-27T13:54:13.379Z,23.00
2019-03-27T13:56:39.327Z,23.00
2019-03-27T13:59:05.300Z,23.00
2019-03-27T14:01:31.257Z,23.00
2019-03-27T14:03:57.238Z,23.00
2019-03-27T14:06:23.193Z,23.00
2019-03-27T14:08:49.153Z,23.00
2019-03-27T14:11:15.119Z,23.00
2019-03-27T14:13:43.430Z,23.00
2019-03-27T14:16:09.045Z,23.00
2019-03-27T14:18:34.999Z,22.90
2019-03-27T14:21:00.941Z,22.90
2019-03-27T14:23:26.907Z,22.90
2019-03-27T14:25:52.865Z,22.90
2019-03-27T14:28:18.815Z,22.90
2019-03-27T14:30:44.755Z,22.90
2019-03-27T14:33:10.690Z,22.90
2019-03-27T14:35:36.658Z,22.90
2019-03-27T14:38:02.622Z,23.00
2019-03-27T14:40:28.582Z,23.00
2019-03-27T14:42:55.775Z,23.00
2019-03-27T14:45:21.742Z,23.10
2019-03-27T14:47:47.728Z,23.00
2019-03-27T14:50:13.673Z,23.00
2019-03-27T14:52:39.635Z,23.00
2019-03-27T14:55:05.597Z,23.00
2019-03-27T14:57:31.579Z,23.00
2019-03-27T14:59:57.517Z,23.00
2019-03-27T15:02:23.478Z,23.00
2019-03-27T15:04:49.576Z,23.10
2019-03-27T15:07:15.535Z,23.10
2019-03-27T15:09:41.508Z,23.10
2019-03-27T15:12:07.477Z,23.10
2019-03-27T15:14:33.413Z,23.10
2019-03-27T15:16:59.384Z,23.20
2019-03-27T15:19:25.391Z,23.20
2019-03-27T15:21:51.401Z,23.20
2019-03-27T15:24:20.486Z,23.20
2019-03-27T15:26:48.910Z,23.20
2019-03-27T15:29:15.309Z,23.20
2019-03-27T15:31:41.256Z,23.20
2019-03-27T15:34:09.468Z,23.20
2019-03-27T15:36:35.472Z,23.20
2019-03-27T15:39:01.640Z,23.20
2019-03-27T15:41:27.680Z,23.20
2019-03-27T15:43:53.643Z,23.20
2019-03-27T15:46:19.570Z,23.20
2019-03-27T15:48:45.495Z,23.20
2019-03-27T15:51:11.447Z,23.20
2019-03-27T15:53:37.393Z,23.20
2019-03-27T15:56:03.336Z,23.10
2019-03-27T15:58:29.393Z,23.10
2019-03-27T16:00:55.348Z,23.10
2019-03-27T16:03:21.295Z,23.10
2019-03-27T16:05:47.253Z,23.00
2019-03-27T16:08:13.178Z,23.00
2019-03-27T16:10:39.138Z,23.00
2019-03-27T16:13:05.078Z,23.00
2019-03-27T16:15:31.025Z,23.00
2019-03-27T16:17:56.976Z,23.10
2019-03-27T16:20:22.900Z,23.10
2019-03-27T16:22:50.845Z,23.10
2019-03-27T16:25:16.690Z,23.10
2019-03-27T16:27:42.639Z,23.20
2019-03-27T16:30:08.569Z,23.20
2019-03-27T16:32:34.555Z,23.20
2019-03-27T16:35:00.500Z,23.20
2019-03-27T16:37:26.456Z,23.20
2019-03-27T16:39:52.397Z,23.20
2019-03-27T16:42:18.326Z,23.20
2019-03-27T16:44:44.281Z,23.20
2019-03-27T16:47:10.241Z,23.20
2019-03-27T16:49:36.212Z,23.20
2019-03-27T16:52:02.148Z,23.30
2019-03-27T16:54:28.451Z,23.30
2019-03-27T16:56:54.400Z,23.30
2019-03-27T16:59:20.342Z,23.30
2019-03-27T17:01:46.300Z,23.30
2019-03-27T17:04:12.438Z,23.30
2019-03-27T17:06:38.374Z,23.20
2019-03-27T17:09:04.303Z,23.20
2019-03-27T17:11:30.245Z,23.20
2019-03-27T17:13:56.226Z,23.20
2019-03-27T17:16:22.171Z,23.20
2019-03-27T17:18:48.108Z,23.20
2019-03-27T17:21:14.068Z,23.20
2019-03-27T17:23:40.026Z,23.20
2019-03-27T17:26:06.105Z,23.40
2019-03-27T17:28:32.034Z,23.60
2019-03-27T17:30:58.011Z,23.70
2019-03-27T17:33:23.976Z,23.80
2019-03-27T17:35:49.914Z,24.00
2019-03-27T17:38:15.987Z,24.00
2019-03-27T17:40:42.032Z,24.20
2019-03-27T17:43:07.995Z,24.30
2019-03-27T17:45:33.930Z,24.30
2019-03-27T17:47:59.897Z,24.30
2019-03-27T17:50:25.941Z,24.20
2019-03-27T17:52:51.988Z,24.30
2019-03-27T17:55:17.933Z,24.30
2019-03-27T17:57:43.985Z,24.40
2019-03-27T18:00:10.432Z,24.40
2019-03-27T18:02:36.353Z,24.60
2019-03-27T18:05:02.281Z,24.80
2019-03-27T18:07:28.235Z,24.80
2019-03-27T18:09:54.219Z,25.00
2019-03-27T18:12:20.147Z,25.00
2019-03-27T18:14:46.123Z,25.00
2019-03-27T18:17:12.077Z,25.10
2019-03-27T18:19:38.018Z,25.10
2019-03-27T18:22:07.869Z,25.20
2019-03-27T18:24:31.813Z,25.30
2019-03-27T18:26:57.973Z,25.30
2019-03-27T18:29:23.960Z,25.30
2019-03-27T18:31:49.913Z,25.40
2019-03-27T18:34:15.969Z,25.40
2019-03-27T18:36:41.936Z,25.40
2019-03-27T18:39:07.882Z,25.40
2019-03-27T18:41:33.926Z,25.40
2019-03-27T18:44:03.038Z,25.40
2019-03-27T18:46:27.738Z,25.40
2019-03-27T18:48:53.707Z,25.40
2019-03-27T18:51:19.639Z,25.40
2019-03-27T18:53:58.478Z,25.40
2019-03-27T18:56:13.585Z,25.40
2019-03-27T18:58:39.549Z,25.40
2019-03-27T19:01:05.515Z,25.20
2019-03-27T19:03:31.564Z,25.30
2019-03-27T19:05:57.542Z,25.40
2019-03-27T19:08:23.497Z,25.40
2019-03-27T19:10:49.450Z,25.50
2019-03-27T19:13:15.945Z,25.60
2019-03-27T19:15:42.001Z,25.60
2019-03-27T19:18:08.049Z,25.60
2019-03-27T19:20:34.049Z,25.60
2019-03-27T19:23:00.088Z,25.60
2019-03-27T19:25:26.022Z,25.50
2019-03-27T19:27:52.159Z,25.60
2019-03-27T19:30:18.225Z,25.50
2019-03-27T19:32:44.165Z,25.40
2019-03-27T19:35:10.229Z,25.30
2019-03-27T19:37:36.199Z,25.20
2019-03-27T19:40:02.163Z,25.00
2019-03-27T19:42:28.227Z,24.90
2019-03-27T19:44:54.468Z,24.70
2019-03-27T19:47:20.521Z,24.60
2019-03-27T19:49:46.599Z,24.50
2019-03-27T19:52:12.536Z,24.40
2019-03-27T19:54:38.649Z,24.40
2019-03-27T19:57:04.683Z,24.30
2019-03-27T19:59:30.645Z,24.20
2019-03-27T20:01:56.587Z,24.20
2019-03-27T20:04:22.981Z,24.10
2019-03-27T20:06:49.042Z,24.10
2019-03-27T20:09:14.980Z,24.00
2019-03-27T20:11:41.041Z,24.00
2019-03-27T20:14:07.193Z,24.00
2019-03-27T20:16:33.264Z,24.00
2019-03-27T20:18:59.221Z,23.90
2019-03-27T20:21:25.162Z,23.90
2019-03-27T20:23:51.121Z,23.90
2019-03-27T20:26:17.083Z,23.80
2019-03-27T20:28:43.027Z,23.80
2019-03-27T20:31:08.992Z,23.80
2019-03-27T20:33:38.021Z,23.80
2019-03-27T20:36:03.152Z,23.80
2019-03-27T20:38:29.244Z,23.80
2019-03-27T20:40:55.215Z,23.80
2019-03-27T20:43:21.174Z,23.80
2019-03-27T20:45:47.150Z,23.80
2019-03-27T20:48:13.102Z,23.80
2019-03-27T20:50:39.067Z,23.80
2019-03-27T20:53:05.028Z,23.70
2019-03-27T20:55:31.181Z,23.70
2019-03-27T20:57:57.229Z,23.70
2019-03-27T21:00:23.174Z,23.70
2019-03-27T21:02:49.110Z,23.60
2019-03-27T21:05:15.061Z,23.60
2019-03-27T21:07:41.037Z,23.60
2019-03-27T21:10:07.073Z,23.60
2019-03-27T21:12:33.016Z,23.60
2019-03-27T21:14:58.980Z,23.50
2019-03-27T21:17:24.934Z,23.50
2019-03-27T21:19:50.987Z,23.50
2019-03-27T21:22:16.952Z,23.50
2019-03-27T21:24:42.903Z,23.50
2019-03-27T21:27:08.864Z,23.40
2019-03-27T21:29:34.881Z,23.40
2019-03-27T21:32:00.926Z,23.40
2019-03-27T21:34:27.765Z,23.40
2019-03-27T21:36:53.732Z,23.30
2019-03-27T21:39:19.690Z,23.30
2019-03-27T21:41:45.738Z,23.30
2019-03-27T21:44:11.714Z,23.30
2019-03-27T21:46:37.805Z,23.30
2019-03-27T21:49:03.823Z,23.30
2019-03-27T21:51:29.902Z,23.20
2019-03-27T21:53:55.967Z,23.20
2019-03-27T21:56:24.319Z,23.20
2019-03-27T21:58:50.270Z,23.20
2019-03-27T22:01:17.601Z,23.10
2019-03-27T22:03:43.568Z,23.10
2019-03-27T22:06:09.528Z,23.10
2019-03-27T22:08:35.463Z,23.10
2019-03-27T22:11:01.451Z,23.10
2019-03-27T22:13:27.506Z,23.00
2019-03-27T22:15:53.453Z,23.00
2019-03-27T22:18:19.393Z,22.90
2019-03-27T22:20:45.336Z,22.90
2019-03-27T22:23:11.309Z,22.90
2019-03-27T22:25:37.257Z,22.90
2019-03-27T22:28:03.195Z,22.80
2019-03-27T22:30:29.129Z,22.80
2019-03-27T22:32:55.081Z,22.80
2019-03-27T22:35:21.023Z,22.70
2019-03-27T22:37:46.985Z,22.70
2019-03-27T22:40:13.036Z,22.70
2019-03-27T22:42:39.082Z,22.70
2019-03-27T22:45:05.041Z,22.60
2019-03-27T22:47:30.990Z,22.60
2019-03-27T22:49:57.101Z,22.50
2019-03-27T22:52:23.053Z,22.50
2019-03-27T22:54:58.019Z,22.50
2019-03-27T22:57:23.971Z,22.50
2019-03-27T22:59:49.932Z,22.50
2019-03-27T23:02:15.861Z,22.50
2019-03-27T23:04:42.386Z,22.40
2019-03-27T23:07:08.387Z,22.40
2019-03-27T23:09:34.429Z,22.40
2019-03-27T23:12:00.365Z,22.40
2019-03-27T23:14:26.336Z,22.30
2019-03-27T23:16:52.275Z,22.40
2019-03-27T23:19:18.243Z,22.40
2019-03-27T23:21:44.192Z,22.40
2019-03-27T23:24:10.132Z,22.30
2019-03-27T23:26:36.076Z,22.30
2019-03-27T23:29:02.022Z,22.30
2019-03-27T23:31:27.981Z,22.30
2019-03-27T23:33:53.913Z,22.30
2019-03-27T23:36:19.856Z,22.20
2019-03-27T23:38:45.826Z,22.30
2019-03-27T23:41:11.756Z,22.20
2019-03-27T23:43:37.718Z,22.20
2019-03-27T23:46:03.674Z,22.10
2019-03-27T23:48:29.602Z,22.10
2019-03-27T23:50:55.551Z,22.10
2019-03-27T23:53:21.500Z,22.10
2019-03-27T23:55:47.508Z,22.00
2019-03-27T23:58:13.556Z,22.00
